This is the latest recevied weather packets stored in our database for station/object WB6AHC-1. If no packets are shown the sender has not sent any weather packets the latest 10 day(s).
| Time | Temp. | Humidity | Pressure | Rain* | Wind** | Luminosity | Snow |
|---|---|---|---|---|---|---|---|
| 1777761909 | 22.22° C | 56% | - | 0 mm | 0 m/s | - | - |
| 1777761062 | 23.89° C | 52% | - | 0 mm | 0 m/s | - | - |
| 1777760218 | 23.89° C | 52% | - | 0 mm | 0 m/s | - | - |
| 1777759374 | 22.22° C | 56% | - | 0 mm | 0 m/s | - | - |
| 1777758527 | 21.67° C | 56% | - | 0 mm | 0 m/s | - | - |
| 1777757683 | 21.67° C | 58% | - | 0 mm | 0 m/s | - | - |
| 1777756839 | 21.67° C | 58% | - | 0 mm | 0 m/s | - | - |
| 1777755992 | 21.11° C | 60% | - | 0 mm | 0 m/s | - | - |
| 1777755148 | 21.11° C | 60% | - | 0 mm | 0 m/s | - | - |
| 1777754304 | 20.56° C | 61% | - | 0 mm | 0 m/s | - | - |
| 1777753457 | 20° C | 64% | - | 0 mm | 0 m/s | - | - |
| 1777752613 | 19.44° C | 67% | - | 0 mm | 0 m/s | - | - |
| 1777751769 | 18.89° C | 68% | - | 0 mm | 0 m/s | - | - |
| 1777750922 | 18.89° C | 68% | - | 0 mm | 0 m/s | - | - |
| 1777750078 | 18.33° C | 70% | - | 0 mm | 0 m/s | - | - |
| 1777749234 | 17.78° C | 72% | - | 0 mm | 0 m/s | - | - |
| 1777748387 | 17.22° C | 73% | - | 0 mm | 0 m/s | - | - |
| 1777747543 | 17.22° C | 74% | - | 0 mm | 0 m/s | - | - |
| 1777746699 | 16.67° C | 77% | - | 0 mm | 0 m/s | - | - |
| 1777745852 | 15.56° C | 80% | - | 0 mm | 0 m/s | - | - |
| 1777745008 | 15° C | 81% | - | 0 mm | 0 m/s | - | - |
| 1777744164 | 15.56° C | 81% | - | 0 mm | 0 m/s | - | - |
| 1777743317 | 15° C | 82% | - | 0 mm | 0 m/s | - | - |
| 1777742472 | 14.44° C | 83% | - | 0 mm | 0 m/s | - | - |
| 1777741628 | 14.44° C | 83% | - | 0 mm | 0 m/s | - | - |
* Rain latest hour (hover to see other rain measurements)
** Current wind speed in m/s (hover to see current wind gust speed)